createdAt,value
2022-09-03T00:01:11.747Z,18.00
2022-09-03T00:03:46.056Z,17.97
2022-09-03T00:06:18.323Z,17.90
2022-09-03T00:08:52.505Z,17.86
2022-09-03T00:11:25.686Z,17.86
2022-09-03T00:14:03.221Z,17.82
2022-09-03T00:16:44.596Z,17.83
2022-09-03T00:19:17.634Z,17.85
2022-09-03T00:21:52.133Z,17.79
2022-09-03T00:24:24.679Z,17.78
2022-09-03T00:26:58.795Z,17.76
2022-09-03T00:29:35.734Z,17.73
2022-09-03T00:32:10.707Z,17.72
2022-09-03T00:34:43.495Z,17.73
2022-09-03T00:37:15.285Z,17.71
2022-09-03T00:39:44.412Z,17.74
2022-09-03T00:42:38.512Z,17.69
2022-09-03T00:45:33.902Z,17.71
2022-09-03T00:48:19.458Z,17.70
2022-09-03T00:51:12.946Z,17.64
2022-09-03T00:53:52.371Z,17.68
2022-09-03T00:56:31.273Z,17.61
2022-09-03T00:59:15.191Z,17.58
2022-09-03T01:01:52.341Z,17.52
2022-09-03T01:04:39.914Z,17.48
2022-09-03T01:07:19.592Z,17.46
2022-09-03T01:09:54.860Z,17.45
2022-09-03T01:12:43.024Z,17.43
2022-09-03T01:15:19.368Z,17.43
2022-09-03T01:18:05.273Z,17.41
2022-09-03T01:20:55.747Z,17.38
2022-09-03T01:24:07.406Z,17.40
2022-09-03T01:26:55.225Z,17.41
2022-09-03T01:29:29.771Z,17.41
2022-09-03T01:32:08.576Z,17.43
2022-09-03T01:34:50.408Z,17.45
2022-09-03T01:37:33.347Z,17.45
2022-09-03T01:40:14.500Z,17.48
2022-09-03T01:43:01.447Z,17.48
2022-09-03T01:45:51.247Z,17.47
2022-09-03T01:48:44.308Z,17.47
2022-09-03T01:51:21.661Z,17.45
2022-09-03T01:54:43.680Z,17.49
2022-09-03T01:57:38.311Z,17.47
2022-09-03T02:00:13.454Z,17.51
2022-09-03T02:02:47.446Z,17.54
2022-09-03T02:05:22.878Z,17.48
2022-09-03T02:08:00.998Z,17.46
2022-09-03T02:10:34.303Z,17.47
2022-09-03T02:13:08.151Z,17.51
2022-09-03T02:15:42.078Z,17.56
2022-09-03T02:18:18.012Z,17.54
2022-09-03T02:20:48.263Z,17.56
2022-09-03T02:23:18.115Z,17.60
2022-09-03T02:26:00.231Z,17.63
2022-09-03T02:28:30.991Z,17.60
2022-09-03T02:31:00.147Z,17.54
2022-09-03T02:33:39.277Z,17.46
2022-09-03T02:36:11.622Z,17.37
2022-09-03T02:38:42.672Z,17.13
2022-09-03T02:41:15.060Z,16.97
2022-09-03T02:43:50.434Z,16.90
2022-09-03T02:46:24.382Z,16.83
2022-09-03T02:48:54.492Z,16.82
2022-09-03T02:51:22.968Z,16.87
2022-09-03T02:53:51.924Z,16.94
2022-09-03T02:56:20.301Z,17.00
2022-09-03T02:58:48.701Z,17.23
2022-09-03T03:01:23.983Z,17.43
2022-09-03T03:03:54.725Z,17.65
2022-09-03T03:06:23.247Z,17.74
2022-09-03T03:08:52.267Z,17.76
2022-09-03T03:11:22.345Z,17.76
2022-09-03T03:13:50.783Z,17.68
2022-09-03T03:16:20.130Z,17.80
2022-09-03T03:18:48.765Z,17.75
2022-09-03T03:21:20.089Z,17.79
2022-09-03T03:23:48.521Z,17.73
2022-09-03T03:26:19.526Z,17.71
2022-09-03T03:28:48.821Z,17.76
2022-09-03T03:31:19.866Z,17.88
2022-09-03T03:33:53.159Z,17.92
2022-09-03T03:36:24.828Z,17.92
2022-09-03T03:38:55.913Z,17.94
2022-09-03T03:41:26.809Z,17.86
2022-09-03T03:43:56.428Z,17.84
2022-09-03T03:46:26.151Z,17.80
2022-09-03T03:48:55.049Z,17.73
2022-09-03T03:51:24.826Z,17.66
2022-09-03T03:53:57.183Z,17.74
2022-09-03T03:56:27.508Z,17.98
2022-09-03T03:58:57.240Z,18.26
2022-09-03T04:01:28.075Z,18.20
2022-09-03T04:03:57.796Z,18.33
2022-09-03T04:06:29.039Z,18.14
2022-09-03T04:08:57.776Z,18.16
2022-09-03T04:11:26.628Z,18.17
2022-09-03T04:13:55.665Z,18.23
2022-09-03T04:16:26.254Z,18.17
2022-09-03T04:18:55.847Z,18.05
2022-09-03T04:21:28.483Z,18.21
2022-09-03T04:23:58.598Z,18.22
2022-09-03T04:26:31.423Z,18.24
2022-09-03T04:29:01.079Z,18.11
2022-09-03T04:31:30.614Z,18.24
2022-09-03T04:34:00.658Z,18.17
2022-09-03T04:36:32.032Z,18.10
2022-09-03T04:39:02.691Z,18.15
2022-09-03T04:41:33.009Z,18.16
2022-09-03T04:44:01.963Z,17.98
2022-09-03T04:46:33.983Z,17.85
2022-09-03T04:49:03.210Z,17.75
2022-09-03T04:51:33.028Z,17.63
2022-09-03T04:54:03.575Z,17.60
2022-09-03T04:56:34.533Z,17.58
2022-09-03T04:59:06.375Z,17.51
2022-09-03T05:01:37.062Z,17.50
2022-09-03T05:04:06.997Z,17.50
2022-09-03T05:06:38.417Z,17.54
2022-09-03T05:09:07.713Z,17.62
2022-09-03T05:11:36.136Z,17.63
2022-09-03T05:14:05.943Z,17.63
2022-09-03T05:16:34.495Z,17.60
2022-09-03T05:19:03.692Z,17.64
2022-09-03T05:21:32.218Z,17.64
2022-09-03T05:24:02.976Z,17.63
2022-09-03T05:26:34.093Z,17.63
2022-09-03T05:29:07.649Z,17.59
2022-09-03T05:31:39.319Z,17.65
2022-09-03T05:34:10.132Z,17.58
2022-09-03T05:36:42.430Z,17.66
2022-09-03T05:39:12.178Z,17.72
2022-09-03T05:41:40.568Z,17.68
2022-09-03T05:44:09.282Z,17.65
2022-09-03T05:46:38.182Z,17.66
2022-09-03T05:49:08.610Z,17.70
2022-09-03T05:51:39.497Z,17.69
2022-09-03T05:54:08.719Z,17.71
2022-09-03T05:56:41.312Z,17.69
2022-09-03T05:59:13.720Z,17.68
2022-09-03T06:01:47.793Z,17.65
2022-09-03T06:04:20.806Z,17.68
2022-09-03T06:06:50.074Z,17.66
2022-09-03T06:09:20.854Z,17.67
2022-09-03T06:11:50.835Z,17.66
2022-09-03T06:14:22.075Z,17.61
2022-09-03T06:16:52.868Z,17.61
2022-09-03T06:19:21.849Z,17.57
2022-09-03T06:21:50.237Z,17.64
2022-09-03T06:24:23.219Z,17.58
2022-09-03T06:26:56.554Z,17.56
2022-09-03T06:29:24.937Z,17.60
2022-09-03T06:31:53.393Z,17.61
2022-09-03T06:34:22.803Z,17.53
2022-09-03T06:36:54.661Z,17.54
2022-09-03T06:39:23.533Z,17.60
2022-09-03T06:41:53.152Z,17.64
2022-09-03T06:44:29.772Z,17.60
2022-09-03T06:47:01.409Z,17.67
2022-09-03T06:49:30.756Z,17.61
2022-09-03T06:51:59.105Z,17.63
2022-09-03T06:54:27.504Z,17.63
2022-09-03T06:56:56.023Z,17.64
2022-09-03T06:59:24.409Z,17.72
2022-09-03T07:01:55.203Z,17.81
2022-09-03T07:04:24.977Z,17.84
2022-09-03T07:06:53.354Z,17.83
2022-09-03T07:09:21.759Z,17.86
2022-09-03T07:11:50.155Z,17.85
2022-09-03T07:14:21.314Z,17.88
2022-09-03T07:16:50.963Z,17.81
2022-09-03T07:19:20.826Z,17.80
2022-09-03T07:21:50.765Z,17.68
2022-09-03T07:24:22.266Z,17.61
2022-09-03T07:26:51.311Z,17.59
2022-09-03T07:29:21.768Z,17.61
2022-09-03T07:31:53.036Z,17.44
2022-09-03T07:34:26.576Z,17.42
2022-09-03T07:36:55.457Z,17.06
2022-09-03T07:39:24.174Z,17.07
2022-09-03T07:41:52.658Z,17.11
2022-09-03T07:44:21.571Z,17.14
2022-09-03T07:46:51.914Z,16.86
2022-09-03T07:49:23.072Z,16.79
2022-09-03T07:51:54.040Z,16.66
2022-09-03T07:54:24.205Z,16.74
2022-09-03T07:56:52.875Z,16.80
2022-09-03T07:59:23.065Z,16.77
2022-09-03T08:01:52.253Z,16.75
2022-09-03T08:04:23.004Z,16.90
2022-09-03T08:06:55.459Z,16.79
2022-09-03T08:09:24.069Z,16.78
2022-09-03T08:11:52.527Z,16.78
2022-09-03T08:14:20.924Z,16.88
2022-09-03T08:16:49.457Z,16.96
2022-09-03T08:19:19.359Z,17.05
2022-09-03T08:21:49.271Z,16.95
2022-09-03T08:24:21.057Z,16.96
2022-09-03T08:26:52.233Z,16.86
2022-09-03T08:29:22.044Z,16.84
2022-09-03T08:31:50.766Z,16.76
2022-09-03T08:34:19.477Z,16.53
2022-09-03T08:36:50.509Z,16.39
2022-09-03T08:39:20.113Z,16.20
2022-09-03T08:42:33.331Z,16.04
2022-09-03T08:45:04.413Z,15.97
2022-09-03T08:47:39.287Z,15.99
2022-09-03T08:50:18.214Z,16.00
2022-09-03T08:52:51.479Z,16.08
2022-09-03T08:55:26.690Z,16.10
2022-09-03T08:58:03.314Z,16.19
2022-09-03T09:00:48.995Z,16.34
2022-09-03T09:03:44.380Z,16.55
2022-09-03T09:06:23.344Z,16.77
2022-09-03T09:09:06.756Z,17.04
2022-09-03T09:11:49.966Z,17.36
2022-09-03T09:14:26.919Z,17.58
2022-09-03T09:17:10.075Z,17.53
2022-09-03T09:19:48.171Z,17.61
2022-09-03T09:22:26.786Z,17.92
2022-09-03T09:25:00.694Z,18.59
2022-09-03T09:27:30.875Z,19.21
2022-09-03T09:30:02.993Z,19.39
2022-09-03T09:32:32.070Z,19.27
2022-09-03T09:35:00.439Z,19.06
2022-09-03T09:37:29.095Z,18.93
2022-09-03T09:40:02.268Z,18.78
2022-09-03T09:42:31.788Z,18.99
2022-09-03T09:45:12.147Z,18.98
2022-09-03T09:47:41.659Z,18.73
2022-09-03T09:50:25.996Z,18.52
2022-09-03T09:53:05.440Z,18.35
2022-09-03T09:55:37.572Z,18.44
2022-09-03T09:58:14.447Z,18.25
2022-09-03T10:00:43.230Z,18.22
2022-09-03T10:03:13.807Z,18.30
2022-09-03T10:05:43.889Z,18.39
2022-09-03T10:08:22.753Z,18.49
2022-09-03T10:10:53.203Z,18.56
2022-09-03T10:13:26.026Z,18.55
2022-09-03T10:16:00.226Z,18.56
2022-09-03T10:18:40.688Z,18.43
2022-09-03T10:21:15.619Z,18.30
2022-09-03T10:24:03.633Z,18.29
2022-09-03T10:26:38.371Z,18.43
2022-09-03T10:29:09.570Z,18.61
2022-09-03T10:31:56.970Z,18.88
2022-09-03T10:34:37.985Z,19.25
2022-09-03T10:37:20.810Z,19.99
2022-09-03T10:40:00.787Z,20.27
2022-09-03T10:42:45.691Z,20.95
2022-09-03T10:45:21.320Z,21.11
2022-09-03T10:48:27.995Z,21.13
2022-09-03T10:51:00.620Z,20.86
2022-09-03T10:53:44.639Z,20.73
2022-09-03T10:56:18.448Z,20.77
2022-09-03T10:59:33.970Z,20.69
2022-09-03T11:02:20.552Z,20.71
2022-09-03T11:04:57.943Z,20.70
2022-09-03T11:07:33.920Z,20.87
2022-09-03T11:10:15.151Z,20.76
2022-09-03T11:12:48.843Z,20.93
2022-09-03T11:15:29.592Z,21.01
2022-09-03T11:18:05.754Z,21.07
2022-09-03T11:20:35.177Z,21.08
2022-09-03T11:23:07.010Z,21.12
2022-09-03T11:25:45.433Z,20.93
2022-09-03T11:28:28.432Z,20.87
2022-09-03T11:31:14.730Z,20.81
2022-09-03T11:33:47.626Z,20.88
2022-09-03T11:36:30.510Z,21.20
2022-09-03T11:39:00.561Z,21.79
2022-09-03T11:41:34.899Z,22.08
2022-09-03T11:44:18.572Z,22.25
2022-09-03T11:46:57.744Z,22.44
2022-09-03T11:49:31.475Z,22.54
2022-09-03T11:52:02.642Z,22.87
2022-09-03T11:54:34.615Z,23.29
2022-09-03T11:57:14.012Z,23.52
2022-09-03T11:59:45.075Z,23.81
2022-09-03T12:02:28.237Z,23.64
2022-09-03T12:05:21.301Z,23.80
2022-09-03T12:08:42.510Z,23.48
2022-09-03T12:11:30.455Z,23.82
2022-09-03T12:14:13.950Z,24.12
2022-09-03T12:17:19.349Z,23.40
2022-09-03T12:19:53.832Z,23.38
2022-09-03T12:22:24.739Z,23.56
2022-09-03T12:24:53.596Z,23.43
2022-09-03T12:27:25.341Z,23.14
2022-09-03T12:29:59.952Z,22.92
2022-09-03T12:32:32.674Z,22.76
2022-09-03T12:35:57.707Z,22.33
2022-09-03T12:38:06.948Z,22.59
2022-09-03T12:41:27.096Z,22.56
2022-09-03T12:43:38.618Z,22.72
2022-09-03T12:46:16.460Z,22.88
2022-09-03T12:51:49.064Z,22.36
2022-09-03T12:54:20.134Z,22.45
2022-09-03T12:56:56.170Z,22.56
2022-09-03T12:59:27.855Z,22.66
2022-09-03T13:02:01.972Z,22.80
2022-09-03T13:04:36.129Z,22.90
2022-09-03T13:07:08.185Z,22.72
2022-09-03T13:09:39.738Z,22.81
2022-09-03T13:12:08.977Z,22.85
2022-09-03T13:14:47.284Z,22.89
2022-09-03T13:17:49.793Z,22.85
2022-09-03T13:20:32.206Z,22.78
2022-09-03T13:23:16.860Z,22.81
2022-09-03T13:25:57.207Z,22.84
2022-09-03T13:28:41.714Z,22.68
2022-09-03T13:31:27.062Z,22.73
2022-09-03T13:34:02.808Z,22.69
2022-09-03T13:36:39.919Z,22.79
2022-09-03T13:39:27.236Z,22.77
2022-09-03T13:42:06.984Z,22.94
2022-09-03T13:44:44.559Z,22.98
2022-09-03T13:47:29.124Z,22.89
2022-09-03T13:50:22.206Z,22.92
2022-09-03T13:52:59.431Z,22.93
2022-09-03T13:55:34.732Z,23.15
2022-09-03T13:58:08.194Z,23.21
2022-09-03T14:00:44.841Z,23.18
2022-09-03T14:03:26.818Z,23.31
2022-09-03T14:06:08.914Z,23.26
2022-09-03T14:09:00.624Z,23.38
2022-09-03T14:11:37.012Z,23.48
2022-09-03T14:14:17.675Z,23.38
2022-09-03T14:16:51.631Z,23.38
2022-09-03T14:19:30.119Z,23.37
2022-09-03T14:22:03.170Z,23.28
2022-09-03T14:24:47.221Z,23.46
2022-09-03T14:27:25.739Z,23.41
2022-09-03T14:30:00.339Z,23.35
2022-09-03T14:32:42.342Z,23.39
2022-09-03T14:35:34.645Z,23.31
2022-09-03T14:39:03.743Z,23.24
2022-09-03T14:42:14.124Z,23.34
2022-09-03T14:45:30.947Z,23.05
2022-09-03T14:48:31.874Z,23.04
2022-09-03T14:51:20.905Z,23.00
2022-09-03T14:54:28.797Z,23.12
2022-09-03T14:57:14.956Z,23.04
2022-09-03T15:00:04.828Z,22.97
2022-09-03T15:03:30.623Z,23.03
2022-09-03T15:06:16.628Z,23.07
2022-09-03T15:09:01.295Z,23.22
2022-09-03T15:11:34.062Z,23.35
2022-09-03T15:14:11.925Z,23.26
2022-09-03T15:16:52.892Z,23.33
2022-09-03T15:19:52.426Z,23.52
2022-09-03T15:22:38.938Z,23.53
2022-09-03T15:25:21.803Z,23.74
2022-09-03T15:28:08.720Z,23.79
2022-09-03T15:30:46.030Z,23.71
2022-09-03T15:33:25.334Z,23.89
2022-09-03T15:36:19.532Z,23.65
2022-09-03T15:38:56.545Z,23.74
2022-09-03T15:41:42.718Z,23.74
2022-09-03T15:44:19.473Z,23.63
2022-09-03T15:46:58.819Z,23.42
2022-09-03T15:49:46.359Z,23.39
2022-09-03T15:52:31.546Z,23.28
2022-09-03T15:55:09.062Z,23.18
2022-09-03T15:57:47.688Z,23.18
2022-09-03T16:00:21.494Z,23.18
2022-09-03T16:03:00.216Z,23.13
2022-09-03T16:05:41.231Z,23.06
2022-09-03T16:08:21.043Z,23.16
2022-09-03T16:11:03.692Z,23.05
2022-09-03T16:13:49.393Z,23.03
2022-09-03T16:16:26.276Z,23.04
2022-09-03T16:19:04.485Z,23.06
2022-09-03T16:21:40.707Z,23.05
2022-09-03T16:24:19.093Z,23.21
2022-09-03T16:26:56.684Z,23.35
2022-09-03T16:29:31.056Z,23.31
2022-09-03T16:32:27.211Z,23.29
2022-09-03T16:35:11.775Z,23.17
2022-09-03T16:38:11.105Z,23.06
2022-09-03T16:40:47.786Z,23.05
2022-09-03T16:43:40.688Z,23.01
2022-09-03T16:46:26.057Z,23.01
2022-09-03T16:49:27.016Z,22.91
2022-09-03T16:52:07.743Z,22.88
2022-09-03T16:54:55.937Z,22.82
2022-09-03T16:57:44.195Z,22.74
2022-09-03T17:00:15.360Z,22.72
2022-09-03T17:03:33.857Z,22.71
2022-09-03T17:06:41.608Z,22.72
2022-09-03T17:09:27.105Z,22.67
2022-09-03T17:12:08.644Z,22.64
2022-09-03T17:15:01.305Z,22.61
2022-09-03T17:17:49.913Z,22.59
2022-09-03T17:20:24.616Z,22.55
2022-09-03T17:23:09.708Z,22.52
2022-09-03T17:25:41.819Z,22.39
2022-09-03T17:28:26.228Z,22.31
2022-09-03T17:30:59.929Z,22.10
2022-09-03T17:33:58.645Z,21.97
2022-09-03T17:36:31.454Z,21.75
2022-09-03T17:39:23.620Z,21.69
2022-09-03T17:41:55.457Z,21.75
2022-09-03T17:44:43.356Z,21.74
2022-09-03T17:47:53.244Z,21.67
2022-09-03T17:50:26.263Z,21.54
2022-09-03T17:52:58.711Z,21.31
2022-09-03T17:55:35.036Z,21.20
2022-09-03T17:58:14.508Z,21.12
2022-09-03T18:00:53.593Z,21.05
2022-09-03T18:03:30.205Z,21.11
2022-09-03T18:06:01.968Z,21.15
2022-09-03T18:08:37.667Z,21.08
2022-09-03T18:11:12.829Z,21.02
2022-09-03T18:13:52.509Z,20.98
2022-09-03T18:16:28.530Z,20.98
2022-09-03T18:19:04.835Z,20.99
2022-09-03T18:21:56.919Z,20.93
2022-09-03T18:24:50.772Z,20.87
2022-09-03T18:27:41.514Z,20.82
2022-09-03T18:30:31.503Z,20.78
2022-09-03T18:33:18.065Z,20.74
2022-09-03T18:36:05.441Z,20.73
2022-09-03T18:38:55.230Z,20.69
2022-09-03T18:42:11.924Z,20.77
2022-09-03T18:45:22.162Z,20.65
2022-09-03T18:48:27.646Z,20.63
2022-09-03T18:51:24.254Z,20.64
2022-09-03T18:54:26.182Z,20.71
2022-09-03T18:57:13.469Z,20.71
2022-09-03T19:00:28.576Z,20.65
2022-09-03T19:03:44.455Z,20.55
2022-09-03T19:06:42.489Z,20.50
2022-09-03T19:09:39.489Z,20.47
2022-09-03T19:12:41.244Z,20.47
2022-09-03T19:15:33.879Z,20.44
2022-09-03T19:18:34.010Z,20.37
2022-09-03T19:21:31.551Z,20.40
2022-09-03T19:24:21.172Z,20.27
2022-09-03T19:27:47.712Z,20.32
2022-09-03T19:30:28.933Z,20.36
2022-09-03T19:33:32.765Z,20.28
2022-09-03T19:36:28.776Z,20.19
2022-09-03T19:39:32.525Z,20.17
2022-09-03T19:42:29.604Z,20.06
2022-09-03T19:45:29.376Z,20.01
2022-09-03T19:48:28.281Z,20.07
2022-09-03T19:51:26.052Z,20.00
2022-09-03T19:54:13.541Z,20.02
2022-09-03T19:57:00.500Z,19.92
2022-09-03T19:59:55.288Z,19.89
2022-09-03T20:02:42.977Z,19.78
2022-09-03T20:05:36.128Z,19.72
2022-09-03T20:08:24.775Z,19.75
2022-09-03T20:10:59.040Z,19.77
2022-09-03T20:13:27.601Z,19.68
2022-09-03T20:16:02.906Z,19.60
2022-09-03T20:18:43.877Z,19.54
2022-09-03T20:21:21.944Z,19.50
2022-09-03T20:23:59.457Z,19.50
2022-09-03T20:26:43.205Z,19.41
2022-09-03T20:29:51.673Z,19.35
2022-09-03T20:32:43.091Z,19.28
2022-09-03T20:35:20.450Z,19.32
2022-09-03T20:38:03.825Z,19.29
2022-09-03T20:40:44.520Z,19.36
2022-09-03T20:43:41.694Z,19.38
2022-09-03T20:46:27.731Z,19.30
2022-09-03T20:49:07.768Z,19.36
2022-09-03T20:51:44.252Z,19.36
2022-09-03T20:54:15.481Z,19.35
2022-09-03T20:57:18.105Z,19.34
2022-09-03T21:00:03.897Z,19.40
2022-09-03T21:02:53.436Z,19.28
2022-09-03T21:05:29.033Z,19.23
2022-09-03T21:08:11.876Z,19.12
2022-09-03T21:10:50.025Z,19.21
2022-09-03T21:13:38.206Z,19.22
2022-09-03T21:16:25.308Z,19.24
2022-09-03T21:19:05.938Z,19.19
2022-09-03T21:21:49.105Z,19.17
2022-09-03T21:24:22.085Z,19.18
2022-09-03T21:26:57.102Z,19.10
2022-09-03T21:29:30.637Z,19.12
2022-09-03T21:32:06.030Z,19.14
2022-09-03T21:34:42.105Z,19.16
2022-09-03T21:37:13.956Z,19.16
2022-09-03T21:39:45.536Z,19.16
2022-09-03T21:42:22.449Z,19.13
2022-09-03T21:45:01.442Z,19.09
2022-09-03T21:47:32.128Z,19.01
2022-09-03T21:50:14.399Z,18.94
2022-09-03T21:52:53.246Z,19.02
2022-09-03T21:55:28.926Z,18.98
2022-09-03T21:58:17.275Z,18.94
2022-09-03T22:00:49.593Z,18.84
2022-09-03T22:03:18.288Z,18.79
2022-09-03T22:05:55.544Z,18.78
2022-09-03T22:08:31.887Z,18.83
2022-09-03T22:11:09.226Z,18.77
2022-09-03T22:13:48.509Z,18.72
2022-09-03T22:16:26.755Z,18.63
2022-09-03T22:18:55.850Z,18.58
2022-09-03T22:21:34.097Z,18.51
2022-09-03T22:24:14.706Z,18.53
2022-09-03T22:26:52.263Z,18.50
2022-09-03T22:29:37.637Z,18.44
2022-09-03T22:32:24.852Z,18.39
2022-09-03T22:35:18.808Z,18.38
2022-09-03T22:38:04.173Z,18.29
2022-09-03T22:40:41.043Z,18.26
2022-09-03T22:43:35.236Z,18.22
2022-09-03T22:46:14.140Z,18.13
2022-09-03T22:49:15.849Z,18.21
2022-09-03T22:52:02.673Z,18.16
2022-09-03T22:54:48.009Z,18.15
2022-09-03T22:57:19.605Z,18.11
2022-09-03T22:59:59.128Z,18.05
2022-09-03T23:02:30.650Z,18.00
2022-09-03T23:05:07.347Z,17.99
2022-09-03T23:07:49.736Z,17.99
2022-09-03T23:10:26.092Z,17.97
2022-09-03T23:13:05.590Z,17.97
2022-09-03T23:15:37.445Z,17.91
2022-09-03T23:18:10.790Z,17.84
2022-09-03T23:20:45.832Z,17.76
2022-09-03T23:23:19.524Z,17.64
2022-09-03T23:25:54.919Z,17.58
2022-09-03T23:28:29.499Z,17.66
2022-09-03T23:31:11.381Z,17.73
2022-09-03T23:33:40.813Z,17.81
2022-09-03T23:36:51.006Z,17.61
2022-09-03T23:39:28.295Z,17.52
2022-09-03T23:42:11.994Z,17.57
2022-09-03T23:44:59.106Z,17.46
2022-09-03T23:47:42.240Z,17.31
2022-09-03T23:50:29.014Z,17.21
2022-09-03T23:53:25.373Z,17.12
2022-09-03T23:56:13.728Z,17.10
2022-09-03T23:58:57.117Z,17.16
